Time;durP1;ratioP1;P1;durP2;ratioP2;P2;SDS_P1;SDS_P2;PMS_P1;PMS_P2;Temp;Humidity;BMP_temperature;BMP_pressure;BME280_temperature;BME280_humidity;BME280_pressure;Samples;Min_cycle;Max_cycle;Signal;HPM_P1;HPM_P2
2022/06/02 00:01:03;;;;;;;9.80;6.63;;;;;;;24.11;69.99;101323.88;5069300;28;20028;-83
2022/06/02 00:03:35;;;;;;;9.43;6.22;;;;;;;24.11;69.97;101327.44;5071628;28;20064;-82
2022/06/02 00:06:30;;;;;;;10.25;6.43;;;;;;;24.07;70.04;101316.72;5070374;28;20036;-82
2022/06/02 00:09:10;;;;;;;11.32;6.20;;;;;;;24.08;70.05;101329.16;5061906;28;20036;-82
2022/06/02 00:11:54;;;;;;;10.23;6.15;;;;;;;24.07;70.04;101336.28;5071930;28;20024;-83
2022/06/02 00:14:57;;;;;;;10.45;6.28;;;;;;;24.04;69.91;101335.38;5071691;28;20063;-83
2022/06/02 00:17:41;;;;;;;7.22;6.00;;;;;;;24.02;70.18;101321.13;5062883;28;20478;-82
2022/06/02 00:20:32;;;;;;;11.00;5.93;;;;;;;23.98;70.06;101318.44;5071067;28;20028;-82
2022/06/02 00:23:09;;;;;;;9.77;6.90;;;;;;;24.00;70.18;101326.44;5069888;28;20036;-82
2022/06/02 00:25:49;;;;;;;10.80;6.22;;;;;;;24.02;69.95;101319.34;5064977;28;20111;-82
2022/06/02 00:28:23;;;;;;;9.57;6.35;;;;;;;24.03;69.82;101312.25;5072675;28;20031;-83
2022/06/02 00:31:14;;;;;;;7.60;5.97;;;;;;;24.05;69.96;101313.16;5069231;28;20028;-83
2022/06/02 00:33:58;;;;;;;9.95;6.70;;;;;;;24.03;69.72;101314.91;5061657;28;20179;-82
2022/06/02 00:36:40;;;;;;;13.32;6.72;;;;;;;23.98;69.66;101318.44;5064335;28;20471;-82
2022/06/02 00:39:08;;;;;;;9.98;6.35;;;;;;;23.87;69.45;101296.09;5068216;28;20071;-83
2022/06/02 00:41:52;;;;;;;11.77;6.32;;;;;;;24.01;69.58;101314.00;5071167;28;20477;-83
2022/06/02 00:44:58;;;;;;;8.10;6.60;;;;;;;24.01;69.31;101311.34;5071153;28;20024;-82
2022/06/02 00:47:52;;;;;;;8.05;6.35;;;;;;;23.97;69.88;101313.97;5031523;28;20041;-82
2022/06/02 00:50:33;;;;;;;8.63;6.00;;;;;;;23.91;70.15;101315.69;5062085;28;20033;-83
2022/06/02 00:53:14;;;;;;;6.95;5.80;;;;;;;23.89;69.65;101298.78;5063028;28;20512;-82
2022/06/02 00:58:59;;;;;;;8.38;6.30;;;;;;;23.95;69.60;101307.72;5067757;28;20043;-82
2022/06/02 01:01:32;;;;;;;10.75;6.30;;;;;;;23.97;69.37;101305.97;5068954;28;20111;-81
2022/06/02 01:03:59;;;;;;;8.60;6.45;;;;;;;23.93;69.59;101303.28;5057688;28;20020;-82
2022/06/02 01:06:29;;;;;;;9.98;6.60;;;;;;;23.95;69.52;101307.72;5083620;28;20024;-83
2022/06/02 01:08:55;;;;;;;8.77;6.25;;;;;;;23.96;69.31;101304.19;5065342;28;20024;-82
2022/06/02 01:11:40;;;;;;;;;;;;;;;24.01;69.36;101309.56;5068322;28;20035;-83
2022/06/02 01:14:41;;;;;;;8.82;6.45;;;;;;;23.97;69.39;101311.31;5037253;28;19928;-82
2022/06/02 01:17:06;;;;;;;9.57;6.28;;;;;;;23.94;69.26;101310.41;5064264;28;20044;-82
2022/06/02 01:19:32;;;;;;;;;;;;;;;23.97;69.52;101321.97;5064607;28;20032;-82
2022/06/02 01:22:25;;;;;;;9.00;6.18;;;;;;;23.93;69.38;101311.28;5070578;28;20484;-83
2022/06/02 01:25:15;;;;;;;9.73;5.82;;;;;;;23.90;69.34;101308.59;5061716;28;20056;-83
2022/06/02 01:27:59;;;;;;;7.70;6.10;;;;;;;23.90;69.57;101298.81;5062486;28;20025;-82
2022/06/02 01:30:37;;;;;;;7.38;5.90;;;;;;;23.92;69.49;101304.16;5068278;28;20040;-82
2022/06/02 01:33:08;;;;;;;6.90;6.05;;;;;;;23.91;69.30;101310.38;5056886;28;20123;-82
2022/06/02 01:36:09;;;;;;;7.15;6.45;;;;;;;23.86;69.39;101296.13;5066319;28;20058;-82
2022/06/02 01:39:04;;;;;;;9.63;6.25;;;;;;;23.86;69.07;101291.66;5025817;28;20076;-82
2022/06/02 01:41:42;;;;;;;8.52;6.30;;;;;;;23.91;69.05;101302.38;5065276;28;20070;-83
2022/06/02 01:44:17;;;;;;;9.73;6.72;;;;;;;23.90;69.07;101305.94;5070600;28;20043;-82
2022/06/02 01:46:45;;;;;;;9.82;6.00;;;;;;;23.88;69.10;101305.91;5068644;28;20044;-82
2022/06/02 01:49:25;;;;;;;9.45;6.32;;;;;;;23.89;69.11;101306.78;5070263;28;20025;-82
2022/06/02 01:51:56;;;;;;;7.38;5.88;;;;;;;23.89;69.07;101318.34;5065136;28;20496;-82
2022/06/02 01:54:49;;;;;;;8.88;6.38;;;;;;;23.87;68.96;101311.22;5060356;28;20028;-82
2022/06/02 01:57:15;;;;;;;8.18;6.10;;;;;;;23.88;69.05;101307.69;5056377;28;20046;-81
2022/06/02 02:00:04;;;;;;;;;;;;;;;23.92;68.90;101309.50;5070343;28;20497;-81
2022/06/02 02:02:43;;;;;;;8.13;5.70;;;;;;;23.80;69.39;101304.94;5060611;28;19991;-81
2022/06/02 02:05:13;;;;;;;10.70;6.60;;;;;;;23.83;69.48;101304.06;5069439;28;20035;-81
2022/06/02 02:07:49;;;;;;;8.07;6.30;;;;;;;23.78;69.30;101296.03;5068812;28;20016;-82
2022/06/02 02:10:27;;;;;;;13.63;6.68;;;;;;;23.88;69.10;101313.03;5058658;28;20130;-82
2022/06/02 02:13:11;;;;;;;12.95;6.95;;;;;;;23.86;68.99;101318.34;5061566;28;20032;-82
2022/06/02 02:15:49;;;;;;;9.27;6.03;;;;;;;23.88;68.98;101313.91;5067063;28;20044;-82
2022/06/02 02:18:25;;;;;;;10.65;6.40;;;;;;;23.85;68.70;101313.88;5058889;28;20064;-83
2022/06/02 02:20:57;;;;;;;8.30;6.03;;;;;;;23.84;68.96;101319.22;5070844;28;20029;-82
2022/06/02 02:23:39;;;;;;;9.52;6.25;;;;;;;23.74;68.83;101299.53;5068040;28;20108;-83
2022/06/02 02:26:19;;;;;;;8.50;6.18;;;;;;;23.84;68.83;101312.09;5060749;28;20032;-83
2022/06/02 02:28:57;;;;;;;10.18;6.45;;;;;;;23.81;69.03;101311.16;5084523;28;20097;-83
2022/06/02 02:31:25;;;;;;;8.77;6.45;;;;;;;23.82;68.64;101315.63;5057732;28;20033;-82
2022/06/02 02:34:43;;;;;;;8.23;6.05;;;;;;;23.85;68.60;101316.53;5060664;28;20029;-83
2022/06/02 02:37:14;;;;;;;8.75;6.43;;;;;;;23.83;68.82;101312.97;5051979;28;20066;-82
2022/06/02 02:39:54;;;;;;;6.68;5.97;;;;;;;23.83;68.66;101312.06;5065223;28;20029;-82
2022/06/02 02:43:05;;;;;;;7.90;6.13;;;;;;;23.84;68.63;101316.56;5064194;28;20032;-82
2022/06/02 02:45:49;;;;;;;10.30;6.25;;;;;;;23.82;68.56;101319.19;5047028;28;20052;-82
2022/06/02 02:48:35;;;;;;;9.43;6.18;;;;;;;23.77;68.89;101318.28;5059394;28;20055;-82
2022/06/02 02:51:12;;;;;;;11.30;6.97;;;;;;;23.77;68.76;101318.28;5065824;28;20063;-83
2022/06/02 02:53:54;;;;;;;9.63;6.35;;;;;;;23.76;68.70;101313.81;5067413;28;20111;-83
2022/06/02 02:56:27;;;;;;;6.97;6.00;;;;;;;23.72;68.85;101302.19;5063524;28;20116;-82
2022/06/02 02:59:01;;;;;;;7.40;6.38;;;;;;;23.73;68.94;101305.75;5059104;28;20020;-83
2022/06/02 03:01:33;;;;;;;8.07;6.60;;;;;;;23.80;68.34;101309.41;5049269;28;20071;-82
2022/06/02 03:04:12;;;;;;;9.88;7.00;;;;;;;23.80;68.59;101312.06;5065465;28;20064;-82
2022/06/02 03:06:42;;;;;;;8.70;6.25;;;;;;;23.75;68.23;101309.34;5061871;28;20024;-83
2022/06/02 03:09:13;;;;;;;8.45;6.35;;;;;;;23.75;68.71;101315.56;5061509;28;20103;-82
2022/06/02 03:11:52;;;;;;;12.82;6.47;;;;;;;23.69;68.70;101307.50;5064645;28;20456;-82
2022/06/02 03:14:18;;;;;;;9.02;6.15;;;;;;;23.72;68.71;101307.50;5061157;28;20149;-83
2022/06/02 03:16:44;;;;;;;;;;;;;;;23.78;68.71;101304.94;5066000;28;20463;-83
2022/06/02 03:19:27;;;;;;;8.35;6.63;;;;;;;23.72;68.76;101310.19;5071808;28;20359;-83
2022/06/02 03:21:54;;;;;;;7.38;6.38;;;;;;;23.72;68.70;101312.84;5072718;28;20067;-83
2022/06/02 03:24:39;;;;;;;11.43;6.43;;;;;;;23.72;68.45;101315.50;5063717;28;20098;-83
2022/06/02 03:27:16;;;;;;;12.00;6.45;;;;;;;23.68;68.79;101308.38;5066519;28;20098;-82
2022/06/02 03:29:55;;;;;;;7.95;6.32;;;;;;;23.68;68.49;101302.13;5071670;28;20024;-82
2022/06/02 03:32:41;;;;;;;8.20;6.57;;;;;;;23.67;68.51;101309.25;5069998;28;20035;-82
2022/06/02 03:35:19;;;;;;;8.50;6.50;;;;;;;23.68;68.68;101305.69;5070652;28;20513;-82
2022/06/02 03:38:22;;;;;;;9.63;6.53;;;;;;;23.65;68.61;101295.00;5069970;28;20290;-82
2022/06/02 03:41:15;;;;;;;8.18;6.38;;;;;;;23.63;68.69;101288.78;5069575;28;20094;-83
2022/06/02 03:43:53;;;;;;;13.75;6.50;;;;;;;23.64;68.94;101301.22;5069808;28;20062;-82
2022/06/02 03:46:38;;;;;;;12.70;6.85;;;;;;;23.69;68.90;101301.28;5071567;28;20433;-83
2022/06/02 03:49:39;;;;;;;8.65;6.47;;;;;;;23.70;68.58;101297.72;5070043;28;20020;-82
2022/06/02 03:52:20;;;;;;;10.35;6.90;;;;;;;23.69;68.61;101302.16;5045787;28;20452;-82
2022/06/02 03:54:58;;;;;;;10.98;6.35;;;;;;;23.69;68.62;101309.28;5064311;28;20021;-82
2022/06/02 03:57:36;;;;;;;10.23;6.28;;;;;;;23.68;68.27;101318.13;5072160;28;20434;-83
2022/06/02 04:00:08;;;;;;;11.82;6.93;;;;;;;23.68;68.34;101323.47;5068252;28;20040;-83
2022/06/02 04:02:40;;;;;;;7.80;6.68;;;;;;;23.65;68.47;101318.13;5062736;28;20021;-82
2022/06/02 04:05:23;;;;;;;8.77;6.45;;;;;;;23.67;68.54;101321.72;5067290;28;20028;-82
2022/06/02 04:08:26;;;;;;;9.15;6.32;;;;;;;23.65;68.36;101315.47;5064974;28;20028;-83
2022/06/02 04:11:17;;;;;;;9.50;6.25;;;;;;;23.69;68.45;101322.63;5046367;28;20033;-82
2022/06/02 04:13:57;;;;;;;8.52;6.20;;;;;;;23.68;68.29;101324.38;5079755;28;20052;-82
2022/06/02 04:16:39;;;;;;;8.82;6.10;;;;;;;23.67;68.40;101327.03;5060747;28;20025;-83
2022/06/02 04:23:08;;;;;;;10.38;6.40;;;;;;;23.66;68.58;101327.91;5048117;28;20039;-82
2022/06/02 04:25:52;;;;;;;11.30;6.95;;;;;;;23.66;68.34;101330.56;5070131;28;20441;-82
2022/06/02 04:28:34;;;;;;;11.82;6.78;;;;;;;23.65;68.39;101329.69;5068492;28;20024;-82
2022/06/02 04:31:23;;;;;;;10.13;6.97;;;;;;;23.61;68.42;101330.53;5061041;28;20035;-82
2022/06/02 04:34:27;;;;;;;7.50;6.55;;;;;;;23.60;68.73;101330.50;5061432;28;20405;-82
2022/06/02 04:37:07;;;;;;;7.80;6.53;;;;;;;23.62;68.45;101336.75;5052838;28;20115;-81
2022/06/02 04:40:06;;;;;;;10.40;6.90;;;;;;;23.64;68.67;101333.22;5063050;28;20063;-81
2022/06/02 04:42:56;;;;;;;9.23;6.35;;;;;;;23.65;68.59;101351.00;5068251;28;20510;-82
2022/06/02 04:45:31;;;;;;;9.65;6.35;;;;;;;23.63;68.73;101349.22;5068327;28;20143;-82
2022/06/02 04:48:43;;;;;;;10.03;6.93;;;;;;;23.63;68.65;101355.44;5069619;28;20026;-82
2022/06/02 04:51:21;;;;;;;8.95;6.35;;;;;;;23.59;68.98;101358.94;5078719;28;20509;-82
2022/06/02 04:54:17;;;;;;;8.68;6.60;;;;;;;23.60;69.15;101355.44;5056473;28;20495;-82
2022/06/02 04:57:30;;;;;;;10.10;6.55;;;;;;;23.43;69.74;101355.25;5065238;28;20041;-82
2022/06/02 05:00:17;;;;;;;8.93;7.05;;;;;;;23.45;69.85;101361.50;5052361;28;20111;-82
2022/06/02 05:02:56;;;;;;;;;;;;;;;23.52;69.78;101367.78;5083938;28;20016;-82
2022/06/02 05:05:40;;;;;;;9.77;6.60;;;;;;;23.41;70.05;101364.09;5066078;28;19938;-83
2022/06/02 05:08:23;;;;;;;7.95;6.53;;;;;;;23.44;69.96;101358.81;5062371;28;20082;-83
2022/06/02 05:11:10;;;;;;;10.27;6.68;;;;;;;23.43;70.14;101365.91;5069499;28;20025;-82
2022/06/02 05:14:15;;;;;;;9.20;6.53;;;;;;;23.43;70.22;101370.31;5070834;28;20031;-82
2022/06/02 05:16:59;;;;;;;9.88;6.57;;;;;;;23.47;70.44;101370.38;5064751;28;20064;-82
2022/06/02 05:19:41;;;;;;;8.63;6.32;;;;;;;23.50;70.22;101378.41;5071512;28;20029;-82
2022/06/02 05:22:11;;;;;;;9.07;6.65;;;;;;;23.45;70.47;101371.25;5069450;28;20585;-82
2022/06/02 05:24:58;;;;;;;9.98;7.00;;;;;;;23.50;70.21;101380.19;5071276;28;20391;-82
2022/06/02 05:27:26;;;;;;;9.30;6.63;;;;;;;23.54;70.12;101385.56;5081617;28;20020;-83
2022/06/02 05:29:57;;;;;;;8.93;6.85;;;;;;;23.56;70.21;101389.16;5074153;28;20032;-81
2022/06/02 05:32:54;;;;;;;8.77;6.15;;;;;;;23.54;70.22;101396.25;5073560;28;20113;-83
2022/06/02 05:35:22;;;;;;;10.18;6.80;;;;;;;23.56;70.23;101391.81;5071101;28;20552;-82
2022/06/02 05:38:13;;;;;;;9.70;7.05;;;;;;;23.60;70.08;101386.50;5057751;28;20040;-83
2022/06/02 05:41:07;;;;;;;8.05;6.53;;;;;;;23.64;69.83;101386.53;5072745;28;20477;-82
2022/06/02 05:43:36;;;;;;;8.27;6.45;;;;;;;23.63;70.28;101382.09;5069098;28;20044;-82
2022/06/02 05:46:30;;;;;;;8.80;6.60;;;;;;;23.67;69.95;101389.25;5080742;28;20082;-82
2022/06/02 05:49:16;;;;;;;7.85;6.32;;;;;;;23.69;69.98;101391.94;5082974;28;20103;-82
2022/06/02 05:51:55;;;;;;;7.38;6.57;;;;;;;23.59;70.16;101393.63;5056351;28;20108;-83
2022/06/02 05:54:20;;;;;;;7.97;6.45;;;;;;;23.64;70.29;101401.66;5068073;28;20624;-80
2022/06/02 05:56:49;;;;;;;;;;;;;;;23.75;69.95;101400.00;5068916;28;20031;-80
2022/06/02 05:59:41;;;;;;;7.95;5.95;;;;;;;23.71;70.09;101400.84;5059173;28;19917;-80
2022/06/02 06:02:18;;;;;;;7.65;6.55;;;;;;;23.64;70.19;101391.88;5068754;28;20051;-82
2022/06/02 06:05:21;;;;;;;7.78;6.40;;;;;;;23.73;69.84;101393.75;5079456;28;20121;-81
2022/06/02 06:08:04;;;;;;;7.55;6.10;;;;;;;23.70;69.78;101396.38;5067330;28;20467;-80
2022/06/02 06:10:40;;;;;;;10.23;6.70;;;;;;;23.72;70.13;101399.97;5064832;28;20020;-81
2022/06/02 06:13:12;;;;;;;8.90;6.78;;;;;;;23.72;70.10;101395.50;5066602;28;20043;-80
2022/06/02 06:15:47;;;;;;;7.47;6.53;;;;;;;23.72;70.07;101395.50;5068352;28;20502;-81
2022/06/02 06:18:15;;;;;;;9.60;7.13;;;;;;;23.67;70.20;101393.69;5066448;28;20029;-81
2022/06/02 06:20:54;;;;;;;9.82;6.72;;;;;;;23.76;70.01;101384.03;5070225;28;20071;-82
2022/06/02 06:23:45;;;;;;;9.43;6.45;;;;;;;23.61;70.29;101367.84;5068798;28;20024;-82
2022/06/02 06:26:28;;;;;;;9.18;7.20;;;;;;;23.77;70.39;101385.84;5067276;28;20024;-81
2022/06/02 06:28:53;;;;;;;9.77;7.25;;;;;;;23.77;70.63;101384.94;5067682;28;20103;-81
2022/06/02 06:31:23;;;;;;;;;;;;;;;23.78;70.57;101376.94;5070919;28;20104;-81
2022/06/02 06:33:49;;;;;;;9.43;6.47;;;;;;;23.75;70.48;101386.69;5069609;28;20344;-81
2022/06/02 06:36:33;;;;;;;;;;;;;;;23.80;70.75;101384.09;5065653;28;20073;-81
2022/06/02 06:39:03;;;;;;;8.02;6.10;;;;;;;23.75;70.31;101371.56;5082745;28;19916;-81
2022/06/02 06:41:51;;;;;;;9.05;6.65;;;;;;;23.65;70.52;101353.69;5070785;28;20024;-81
2022/06/02 06:44:39;;;;;;;6.88;6.15;;;;;;;23.81;70.43;101384.06;5067485;28;20117;-81
2022/06/02 06:47:19;;;;;;;8.02;6.97;;;;;;;23.77;70.73;101374.28;5069580;28;20394;-81
2022/06/02 06:49:54;;;;;;;9.55;7.10;;;;;;;23.82;71.18;101374.31;5058602;28;20103;-81
2022/06/02 06:52:28;;;;;;;10.55;7.55;;;;;;;23.75;70.72;101378.69;5069324;28;20469;-80
2022/06/02 06:55:00;;;;;;;7.88;6.60;;;;;;;23.77;70.57;101377.84;5066031;28;20029;-80
2022/06/02 06:57:35;;;;;;;9.50;7.10;;;;;;;23.85;70.41;101379.66;5074359;28;20449;-81
2022/06/02 07:00:04;;;;;;;8.95;7.13;;;;;;;23.87;70.29;101372.56;5072989;28;20031;-80
2022/06/02 07:02:51;;;;;;;9.15;6.78;;;;;;;23.89;70.19;101377.03;5071996;28;20029;-81
2022/06/02 07:05:23;;;;;;;10.10;7.55;;;;;;;23.87;70.29;101377.91;5072270;28;20519;-81
2022/06/02 07:08:02;;;;;;;7.88;6.78;;;;;;;23.90;70.18;101383.28;5075949;28;20040;-81
2022/06/02 07:10:41;;;;;;;8.15;6.95;;;;;;;23.90;70.26;101372.63;5072644;28;20024;-81
2022/06/02 07:13:32;;;;;;;8.40;6.25;;;;;;;23.83;70.21;101365.41;5059848;28;20025;-81
2022/06/02 07:16:31;;;;;;;9.60;7.30;;;;;;;23.88;70.16;101379.72;5053816;28;20179;-81
2022/06/02 07:19:27;;;;;;;7.78;6.53;;;;;;;23.84;70.26;101372.56;5084230;28;20485;-81
2022/06/02 07:21:57;;;;;;;8.70;6.93;;;;;;;23.89;70.19;101379.72;5074713;28;20551;-80
2022/06/02 07:24:36;;;;;;;7.93;6.88;;;;;;;23.90;70.37;101386.84;5071752;28;20540;-81
2022/06/02 07:27:11;;;;;;;9.98;6.93;;;;;;;23.89;70.44;101378.81;5069377;28;20490;-81
2022/06/02 07:29:56;;;;;;;10.27;7.45;;;;;;;23.90;70.28;101391.28;5073506;28;20047;-81
2022/06/02 07:32:46;;;;;;;7.97;7.18;;;;;;;23.90;70.55;101399.28;5075737;28;20093;-81
2022/06/02 07:35:48;;;;;;;7.25;6.55;;;;;;;23.91;70.29;101401.94;5068182;28;20073;-81
2022/06/02 07:38:43;;;;;;;7.60;6.80;;;;;;;23.94;70.28;101404.66;5062496;28;20545;-81
2022/06/02 07:41:15;;;;;;;10.95;7.22;;;;;;;23.93;70.42;101407.31;5062844;28;20097;-81
2022/06/02 07:44:10;;;;;;;9.32;7.60;;;;;;;23.90;70.58;101396.63;5072141;28;20028;-82
2022/06/02 07:46:54;;;;;;;10.20;7.50;;;;;;;23.91;70.59;101407.28;5071529;28;20028;-82
2022/06/02 07:49:25;;;;;;;8.65;6.82;;;;;;;23.95;70.46;101405.56;5071097;28;20026;-81
2022/06/02 07:51:57;;;;;;;7.82;6.93;;;;;;;23.94;70.46;101398.44;5069955;28;20086;-80
2022/06/02 07:54:35;;;;;;;10.00;7.28;;;;;;;23.87;70.86;101388.56;5075344;28;20107;-80
2022/06/02 07:57:29;;;;;;;9.95;6.97;;;;;;;23.93;70.92;101405.53;5066167;28;20040;-81
2022/06/02 08:00:29;;;;;;;8.13;7.20;;;;;;;23.83;70.88;101378.75;5066442;28;20511;-81
2022/06/02 08:03:39;;;;;;;7.88;6.90;;;;;;;23.93;70.75;101400.19;5062748;28;20027;-81
2022/06/02 08:06:46;;;;;;;9.65;7.65;;;;;;;23.93;71.02;101404.66;5056108;28;20036;-81
2022/06/02 08:09:59;;;;;;;9.65;7.15;;;;;;;23.91;71.07;101401.06;5044223;28;20048;-82
2022/06/02 08:12:32;;;;;;;9.60;7.60;;;;;;;23.95;70.90;101405.56;5024582;28;20044;-80
2022/06/02 08:15:15;;;;;;;9.38;7.70;;;;;;;23.94;70.85;101409.13;5076223;28;20063;-80
2022/06/02 08:17:48;;;;;;;9.90;7.97;;;;;;;23.95;71.07;101411.78;5064771;28;20406;-81
2022/06/02 08:20:45;;;;;;;11.98;7.95;;;;;;;23.95;71.00;101417.13;5068434;28;20024;-81
2022/06/02 08:23:25;;;;;;;10.27;7.88;;;;;;;23.97;71.16;101404.69;5065368;28;20024;-81
2022/06/02 08:25:57;;;;;;;8.85;7.57;;;;;;;23.97;71.13;101415.34;5064581;28;20044;-81
2022/06/02 08:28:36;;;;;;;11.95;8.35;;;;;;;23.92;71.14;101406.44;5061781;28;20027;-81
2022/06/02 08:31:02;;;;;;;11.45;8.27;;;;;;;23.96;71.52;101410.91;5072644;28;20039;-81
2022/06/02 08:33:27;;;;;;;;;;;;;;;24.02;71.55;101419.84;5068098;28;20020;-81
2022/06/02 08:35:58;;;;;;;10.70;7.97;;;;;;;23.97;71.39;101415.34;5057519;28;19908;-81
2022/06/02 08:38:40;;;;;;;10.20;8.18;;;;;;;24.01;71.51;101415.41;5060017;28;20505;-81
2022/06/02 08:41:33;;;;;;;12.70;9.02;;;;;;;24.01;71.42;101423.41;5083381;28;20092;-81
2022/06/02 08:44:17;;;;;;;15.07;9.80;;;;;;;24.00;71.40;101416.25;5068240;28;20021;-80
2022/06/02 08:47:06;;;;;;;13.85;9.65;;;;;;;23.99;71.45;101420.72;5073947;28;20101;-82
2022/06/02 08:50:12;;;;;;;13.35;8.95;;;;;;;24.02;71.44;101419.84;5063673;28;20017;-81
2022/06/02 08:52:56;;;;;;;13.57;9.52;;;;;;;24.03;71.86;101421.66;5070988;28;20036;-81
2022/06/02 08:55:58;;;;;;;14.85;8.95;;;;;;;24.02;71.95;101418.06;5063082;28;20099;-81
2022/06/02 08:58:41;;;;;;;13.35;9.70;;;;;;;24.03;71.75;101422.53;5051821;28;20479;-81
2022/06/02 09:01:56;;;;;;;14.80;9.65;;;;;;;24.02;71.87;101427.84;5067552;28;20021;-81
2022/06/02 09:04:57;;;;;;;15.25;9.63;;;;;;;23.95;71.70;101413.56;5046962;28;20444;-82
2022/06/02 09:07:44;;;;;;;15.75;10.80;;;;;;;24.02;72.02;101426.06;5051837;28;20025;-82
2022/06/02 09:10:10;;;;;;;;;;;;;;;24.05;71.67;101428.78;5065064;28;20422;-81
2022/06/02 09:13:21;;;;;;;13.65;9.68;;;;;;;24.04;71.79;101423.41;5060283;28;19971;-81
2022/06/02 09:16:11;;;;;;;18.08;11.30;;;;;;;24.04;71.96;101426.97;5049695;28;20049;-81
2022/06/02 09:18:56;;;;;;;15.02;11.35;;;;;;;24.06;72.19;101427.88;5067529;28;20020;-81
2022/06/02 09:21:24;;;;;;;19.10;11.25;;;;;;;24.10;72.25;101437.69;5062161;28;20099;-82
2022/06/02 09:24:02;;;;;;;16.98;10.95;;;;;;;23.88;72.02;101403.72;5070191;28;20047;-81
2022/06/02 09:26:51;;;;;;;18.42;11.82;;;;;;;24.08;72.28;101438.56;5061064;28;20028;-81
2022/06/02 09:29:38;;;;;;;16.50;11.15;;;;;;;24.09;71.96;101435.03;5039351;28;20187;-82
2022/06/02 09:32:20;;;;;;;16.90;11.60;;;;;;;24.01;72.64;101418.94;5069556;28;20551;-82
2022/06/02 09:35:32;;;;;;;16.15;11.27;;;;;;;24.03;72.89;101429.66;5070036;28;20024;-82
2022/06/02 09:38:10;;;;;;;21.25;12.23;;;;;;;24.09;72.16;101424.38;5046542;28;20037;-82
2022/06/02 09:40:46;;;;;;;16.70;11.02;;;;;;;24.09;72.25;101430.59;5051401;28;20029;-81
2022/06/02 09:43:22;;;;;;;16.35;11.30;;;;;;;24.12;72.24;101432.38;5044013;28;20094;-81
2022/06/02 09:46:14;;;;;;;18.08;11.77;;;;;;;24.01;72.60;101415.41;5081779;28;20031;-81
2022/06/02 09:49:05;;;;;;;16.17;11.35;;;;;;;24.14;72.24;101435.97;5058683;28;20082;-81
2022/06/02 09:51:58;;;;;;;17.38;12.07;;;;;;;24.01;72.49;101418.06;5052088;28;20067;-82
2022/06/02 09:54:53;;;;;;;19.00;11.27;;;;;;;24.15;72.43;101435.06;5069346;28;20028;-81
2022/06/02 10:00:20;;;;;;;15.77;11.32;;;;;;;24.14;72.66;101431.50;5050636;28;20417;-81
2022/06/02 10:02:54;;;;;;;14.90;11.02;;;;;;;24.15;72.42;101443.06;5059620;28;20028;-82
2022/06/02 10:05:32;;;;;;;17.58;11.35;;;;;;;24.16;72.45;101442.22;5054293;28;20031;-81
2022/06/02 10:08:04;;;;;;;14.60;11.10;;;;;;;24.15;72.26;101429.72;5069200;28;20049;-82
2022/06/02 10:10:43;;;;;;;18.33;11.82;;;;;;;24.18;72.45;101429.78;5065191;28;20393;-81
2022/06/02 10:13:31;;;;;;;17.30;12.00;;;;;;;24.20;72.23;101432.47;5062613;28;20025;-81
2022/06/02 10:16:18;;;;;;;15.70;11.52;;;;;;;24.21;72.38;101432.47;5070061;28;20521;-81
2022/06/02 10:18:58;;;;;;;18.33;11.80;;;;;;;24.22;72.51;101430.72;5051592;28;20027;-81
2022/06/02 10:21:37;;;;;;;17.38;11.82;;;;;;;24.20;72.76;101428.00;5055385;28;20090;-81
2022/06/02 10:24:41;;;;;;;18.42;12.20;;;;;;;24.18;72.51;101417.31;5076259;28;20028;-81
2022/06/02 10:27:31;;;;;;;19.10;11.90;;;;;;;24.25;72.62;101425.38;5062769;28;20037;-81
2022/06/02 10:30:41;;;;;;;16.45;11.68;;;;;;;24.24;72.63;101429.81;5077423;28;20095;-81
2022/06/02 10:33:44;;;;;;;16.58;11.80;;;;;;;24.26;72.53;101424.50;5056819;28;20036;-81
2022/06/02 10:36:24;;;;;;;20.17;12.63;;;;;;;24.26;72.98;101421.84;5057643;28;20063;-81
2022/06/02 10:39:16;;;;;;;16.17;11.70;;;;;;;24.24;72.73;101418.28;5058697;28;20116;-81
2022/06/02 10:41:57;;;;;;;14.80;11.95;;;;;;;24.25;73.09;101415.59;5077429;28;20032;-81
2022/06/02 10:44:47;;;;;;;19.17;12.45;;;;;;;24.29;72.81;101414.72;5072401;28;20075;-81
2022/06/02 10:47:43;;;;;;;17.65;12.07;;;;;;;24.29;73.42;101414.72;5060999;28;20029;-81
2022/06/02 10:51:00;;;;;;;19.60;12.02;;;;;;;24.26;73.27;101417.38;5062472;28;20494;-82
2022/06/02 10:53:34;;;;;;;17.70;12.10;;;;;;;24.32;73.13;101414.78;5055071;28;20565;-81
2022/06/02 10:56:38;;;;;;;17.45;11.82;;;;;;;24.33;73.13;101413.00;5077498;28;20032;-82
2022/06/02 10:59:15;;;;;;;18.58;11.63;;;;;;;24.34;73.17;101418.34;5028170;28;20049;-82
2022/06/02 11:02:14;;;;;;;16.35;11.63;;;;;;;24.36;73.01;101413.00;5059112;28;20033;-82
2022/06/02 11:05:17;;;;;;;15.07;11.18;;;;;;;24.36;73.39;101411.25;5077357;28;20020;-81
2022/06/02 11:07:54;;;;;;;17.30;11.30;;;;;;;24.39;72.93;101410.38;5076795;28;20035;-81
2022/06/02 11:10:33;;;;;;;18.98;11.52;;;;;;;24.38;73.34;101406.81;5071203;28;20483;-82
2022/06/02 11:13:20;;;;;;;16.58;11.73;;;;;;;24.41;73.28;101407.72;5067285;28;20036;-81
2022/06/02 11:16:03;;;;;;;16.35;12.02;;;;;;;24.42;72.97;101405.03;5063576;28;20083;-81
2022/06/02 11:18:39;;;;;;;17.67;11.55;;;;;;;24.42;73.24;101401.47;5060431;28;20533;-82
2022/06/02 11:21:31;;;;;;;16.37;11.73;;;;;;;24.38;72.99;101389.88;5064659;28;20032;-81
2022/06/02 11:24:09;;;;;;;14.77;11.82;;;;;;;24.44;73.54;101402.38;5053273;28;20513;-81
2022/06/02 11:26:57;;;;;;;16.73;11.30;;;;;;;24.39;73.33;101391.69;5084459;28;20027;-81
2022/06/02 11:29:28;;;;;;;18.60;11.25;;;;;;;24.45;73.20;101404.16;5063185;28;20082;-81
2022/06/02 11:32:31;;;;;;;14.18;11.23;;;;;;;24.46;73.08;101397.94;5075401;28;20039;-82
2022/06/02 11:35:15;;;;;;;15.40;11.23;;;;;;;24.49;73.20;101404.25;5054031;28;20025;-82
2022/06/02 11:38:02;;;;;;;14.18;11.23;;;;;;;24.47;73.31;101394.38;5058415;28;20028;-81
2022/06/02 11:41:02;;;;;;;15.30;11.55;;;;;;;24.50;73.26;101406.03;5073962;28;20031;-81
2022/06/02 11:43:46;;;;;;;13.65;11.23;;;;;;;24.49;73.28;101409.59;5055548;28;20112;-82
2022/06/02 11:46:33;;;;;;;14.32;11.57;;;;;;;24.49;72.98;101404.25;5058628;28;20056;-81
2022/06/02 11:49:22;;;;;;;14.65;11.30;;;;;;;24.49;72.98;101406.91;5059751;28;20013;-81
2022/06/02 11:52:02;;;;;;;14.45;11.38;;;;;;;24.51;73.22;101406.91;5073054;28;20032;-81
2022/06/02 11:54:33;;;;;;;16.45;12.05;;;;;;;24.49;73.23;101404.25;5073593;28;20486;-81
2022/06/02 11:57:08;;;;;;;14.80;11.55;;;;;;;24.51;73.27;101407.81;5053477;28;20024;-81
2022/06/02 11:59:52;;;;;;;14.43;11.95;;;;;;;24.56;72.83;101398.06;5066644;28;20035;-81
2022/06/02 12:02:52;;;;;;;14.40;11.15;;;;;;;24.54;72.89;101409.63;5053550;28;20020;-81
2022/06/02 12:05:37;;;;;;;14.90;11.65;;;;;;;24.54;72.91;101401.59;5058037;28;20020;-81
2022/06/02 12:08:34;;;;;;;17.67;11.93;;;;;;;24.49;73.20;101389.97;5060053;28;20082;-81
2022/06/02 12:11:12;;;;;;;;;;;;;;;24.56;73.10;101394.50;5062644;28;20494;-81
2022/06/02 12:13:51;;;;;;;;;;;;;;;24.57;72.75;101390.94;5069327;28;20414;-82
2022/06/02 12:16:38;;;;;;;13.63;10.88;;;;;;;24.51;73.10;101378.44;5068705;28;20011;-81
2022/06/02 12:19:30;;;;;;;15.02;11.60;;;;;;;24.52;73.23;101385.56;5072631;28;20029;-81
2022/06/02 12:22:13;;;;;;;15.88;11.05;;;;;;;24.42;72.77;101353.44;5071229;28;20497;-81
2022/06/02 12:25:13;;;;;;;15.25;11.57;;;;;;;24.57;73.02;101375.81;5062957;28;20391;-81
2022/06/02 12:28:00;;;;;;;17.17;12.10;;;;;;;24.54;73.08;101373.13;5073032;28;20433;-81
2022/06/02 12:30:50;;;;;;;15.23;11.93;;;;;;;24.58;73.12;101371.38;5072659;28;20028;-82
2022/06/02 12:33:34;;;;;;;18.05;12.20;;;;;;;24.56;73.26;101362.44;5072792;28;20082;-80
2022/06/02 12:36:22;;;;;;;15.32;12.32;;;;;;;24.58;73.07;101364.25;5067288;28;20460;-82
2022/06/02 12:39:11;;;;;;;13.27;11.40;;;;;;;24.57;73.02;101358.88;5051268;28;20036;-81
2022/06/02 12:41:59;;;;;;;13.95;11.65;;;;;;;24.60;72.97;101366.94;5062563;28;20056;-81
2022/06/02 12:44:27;;;;;;;15.98;12.05;;;;;;;24.43;72.99;101340.09;5057084;28;20464;-81
2022/06/02 12:47:04;;;;;;;16.02;12.73;;;;;;;24.50;73.10;101346.41;5072603;28;20028;-81